createdAt,value
2023-10-17T00:00:46.618Z,4.63
2023-10-17T00:03:39.098Z,5.07
2023-10-17T00:06:26.803Z,5.33
2023-10-17T00:09:22.269Z,5.13
2023-10-17T00:12:26.799Z,5.20
2023-10-17T00:15:28.580Z,6.40
2023-10-17T00:18:20.138Z,6.80
2023-10-17T00:21:18.121Z,5.70
2023-10-17T00:24:09.836Z,5.50
2023-10-17T00:26:58.054Z,5.13
2023-10-17T00:29:46.609Z,5.87
2023-10-17T00:32:41.544Z,5.40
2023-10-17T00:35:32.149Z,5.70
2023-10-17T00:38:20.843Z,5.23
2023-10-17T00:41:10.901Z,5.03
2023-10-17T00:43:59.099Z,4.93
2023-10-17T00:46:46.836Z,4.43
2023-10-17T00:49:41.993Z,4.70
2023-10-17T00:52:33.570Z,4.50
2023-10-17T00:55:25.977Z,4.10
2023-10-17T00:58:13.728Z,4.20
2023-10-17T01:01:10.628Z,4.87
2023-10-17T01:03:59.659Z,4.50
2023-10-17T01:06:54.491Z,3.90
2023-10-17T01:09:48.484Z,4.33
2023-10-17T01:12:42.112Z,4.60
2023-10-17T01:15:29.938Z,4.00
2023-10-17T01:18:17.450Z,3.90
2023-10-17T01:21:06.191Z,5.53
2023-10-17T01:23:53.535Z,6.67
2023-10-17T01:26:46.204Z,4.27
2023-10-17T01:29:33.429Z,4.87
2023-10-17T01:32:23.152Z,4.90
2023-10-17T01:35:11.738Z,4.37
2023-10-17T01:37:59.059Z,3.93
2023-10-17T01:40:46.721Z,4.07
2023-10-17T01:43:41.382Z,4.00
2023-10-17T01:46:30.636Z,4.30
2023-10-17T01:49:20.842Z,4.00
2023-10-17T01:52:12.801Z,4.10
2023-10-17T01:55:00.648Z,4.60
2023-10-17T01:57:49.259Z,4.27
2023-10-17T02:00:40.998Z,4.33
2023-10-17T02:03:28.482Z,4.30
2023-10-17T02:06:16.738Z,4.63
2023-10-17T02:09:19.568Z,4.50
2023-10-17T02:12:09.596Z,4.60
2023-10-17T02:14:57.406Z,4.70
2023-10-17T02:17:46.290Z,4.40
2023-10-17T02:20:35.884Z,4.27
2023-10-17T02:23:27.401Z,4.23
2023-10-17T02:26:16.198Z,4.63
2023-10-17T02:29:11.106Z,4.60
2023-10-17T02:31:59.828Z,4.20
2023-10-17T02:34:48.924Z,4.03
2023-10-17T02:37:36.760Z,4.60
2023-10-17T02:40:24.543Z,4.60
2023-10-17T02:43:13.971Z,4.57
2023-10-17T02:46:05.601Z,4.00
2023-10-17T02:48:53.887Z,4.30
2023-10-17T02:51:43.973Z,4.90
2023-10-17T02:54:35.564Z,4.10
2023-10-17T02:57:24.586Z,5.17
2023-10-17T03:00:23.256Z,4.43
2023-10-17T03:03:14.265Z,5.00
2023-10-17T03:06:02.020Z,6.00
2023-10-17T03:08:52.979Z,5.53
2023-10-17T03:11:48.684Z,6.20
2023-10-17T03:14:41.729Z,4.77
2023-10-17T03:17:28.593Z,4.00
2023-10-17T03:20:18.198Z,5.33
2023-10-17T03:23:09.922Z,7.90
2023-10-17T03:26:02.246Z,5.20
2023-10-17T03:28:52.254Z,5.57
2023-10-17T03:31:42.898Z,5.07
2023-10-17T03:34:36.442Z,6.37
2023-10-17T03:37:30.120Z,5.00
2023-10-17T03:40:20.244Z,5.43
2023-10-17T03:43:13.901Z,5.73
2023-10-17T03:46:05.697Z,6.60
2023-10-17T03:48:58.365Z,5.27
2023-10-17T03:51:52.503Z,5.43
2023-10-17T03:54:41.001Z,6.93
2023-10-17T03:57:29.172Z,8.30
2023-10-17T04:00:26.527Z,6.80
2023-10-17T04:03:22.594Z,5.73
2023-10-17T04:06:22.026Z,5.57
2023-10-17T04:09:21.951Z,5.37
2023-10-17T04:12:10.464Z,5.50
2023-10-17T04:15:00.981Z,5.83
2023-10-17T04:17:50.286Z,5.87
2023-10-17T04:20:38.230Z,5.73
2023-10-17T04:23:27.695Z,8.30
2023-10-17T04:26:19.153Z,5.43
2023-10-17T04:29:14.206Z,6.23
2023-10-17T04:32:02.889Z,6.53
2023-10-17T04:34:53.782Z,6.90
2023-10-17T04:37:46.039Z,5.90
2023-10-17T04:40:38.703Z,5.00
2023-10-17T04:43:46.878Z,5.43
2023-10-17T04:46:46.935Z,5.20
2023-10-17T04:49:36.774Z,5.43
2023-10-17T04:52:31.856Z,5.23
2023-10-17T04:55:23.385Z,5.63
2023-10-17T04:58:31.914Z,4.60
2023-10-17T05:01:36.312Z,5.67
2023-10-17T05:04:34.989Z,5.10
2023-10-17T05:07:28.882Z,5.40
2023-10-17T05:10:35.097Z,5.40
2023-10-17T05:13:39.210Z,4.60
2023-10-17T05:16:43.928Z,5.40
2023-10-17T05:19:48.902Z,5.10
2023-10-17T05:22:53.349Z,4.57
2023-10-17T05:25:58.544Z,5.90
2023-10-17T05:29:15.239Z,5.23
2023-10-17T05:32:20.059Z,5.43
2023-10-17T05:35:25.023Z,5.07
2023-10-17T05:38:29.581Z,5.27
2023-10-17T05:41:38.613Z,5.57
2023-10-17T05:44:43.246Z,5.30
2023-10-17T05:47:47.716Z,5.70
2023-10-17T05:50:52.371Z,5.27
2023-10-17T05:54:24.330Z,5.57
2023-10-17T05:57:35.462Z,5.93
2023-10-17T06:00:41.777Z,5.67
2023-10-17T06:03:54.706Z,5.97
2023-10-17T06:07:00.746Z,6.63
2023-10-17T06:10:06.584Z,10.10
2023-10-17T06:13:12.736Z,17.80
2023-10-17T06:16:17.313Z,12.50
2023-10-17T06:19:06.550Z,10.37
2023-10-17T06:22:11.438Z,6.30
2023-10-17T06:25:12.536Z,8.13
2023-10-17T06:28:27.686Z,8.70
2023-10-17T06:31:32.733Z,8.93
2023-10-17T06:34:21.624Z,8.97
2023-10-17T06:37:08.786Z,8.13
2023-10-17T06:39:59.627Z,8.23
2023-10-17T06:42:50.369Z,7.90
2023-10-17T06:45:39.188Z,7.40
2023-10-17T06:48:37.309Z,7.63
2023-10-17T06:51:37.205Z,6.27
2023-10-17T06:54:27.835Z,5.50
2023-10-17T06:57:20.990Z,5.67
2023-10-17T07:00:25.219Z,5.97
2023-10-17T07:03:15.715Z,6.50
2023-10-17T07:06:12.500Z,6.37
2023-10-17T07:09:06.387Z,6.37
2023-10-17T07:11:54.071Z,6.63
2023-10-17T07:14:43.925Z,6.50
2023-10-17T07:17:40.713Z,6.63
2023-10-17T07:20:51.218Z,6.43
2023-10-17T07:23:42.116Z,6.07
2023-10-17T07:26:40.842Z,6.37
2023-10-17T07:29:31.411Z,6.17
2023-10-17T07:32:19.186Z,6.73
2023-10-17T07:35:07.644Z,7.13
2023-10-17T07:37:56.506Z,7.60
2023-10-17T07:40:55.313Z,9.23
2023-10-17T07:43:45.366Z,9.10
2023-10-17T07:46:35.794Z,7.93
2023-10-17T07:49:28.052Z,8.33
2023-10-17T07:52:16.953Z,4.50
2023-10-17T07:55:18.885Z,4.43
2023-10-17T07:58:10.951Z,4.03
2023-10-17T08:00:58.431Z,3.57
2023-10-17T08:03:55.975Z,4.27
2023-10-17T08:06:45.048Z,3.97
2023-10-17T08:09:42.120Z,3.93
2023-10-17T08:12:31.066Z,4.00
2023-10-17T08:15:23.198Z,3.93
2023-10-17T08:18:16.600Z,3.97
2023-10-17T08:21:21.132Z,3.10
2023-10-17T08:24:09.555Z,3.55
2023-10-17T08:27:10.923Z,3.33
2023-10-17T08:30:06.002Z,3.85
2023-10-17T08:33:11.173Z,3.25
2023-10-17T08:36:03.055Z,3.72
2023-10-17T08:38:50.682Z,3.85
2023-10-17T08:41:38.681Z,3.20
2023-10-17T08:44:29.954Z,2.85
2023-10-17T08:47:20.753Z,3.22
2023-10-17T08:50:10.417Z,2.80
2023-10-17T08:53:00.722Z,3.10
2023-10-17T08:55:49.619Z,2.10
2023-10-17T08:58:37.808Z,2.67
2023-10-17T09:01:28.122Z,2.45
2023-10-17T09:04:19.585Z,2.40
2023-10-17T09:07:09.608Z,2.40
2023-10-17T09:09:57.308Z,2.10
2023-10-17T09:12:45.119Z,2.00
2023-10-17T09:15:31.824Z,1.73
2023-10-17T09:18:29.079Z,1.95
2023-10-17T09:21:22.099Z,1.45
2023-10-17T09:24:28.938Z,1.70
2023-10-17T09:27:16.836Z,1.77
2023-10-17T09:30:07.021Z,1.50
2023-10-17T09:32:55.027Z,1.83
2023-10-17T09:35:42.607Z,1.83
2023-10-17T09:38:32.684Z,1.60
2023-10-17T09:41:20.936Z,1.65
2023-10-17T09:44:11.581Z,1.50
2023-10-17T09:47:04.793Z,1.60
2023-10-17T09:49:57.750Z,1.70
2023-10-17T09:52:49.881Z,1.70
2023-10-17T09:55:44.172Z,1.98
2023-10-17T09:58:35.988Z,1.40
2023-10-17T10:01:28.657Z,1.60
2023-10-17T10:04:19.918Z,1.38
2023-10-17T10:07:27.522Z,1.52
2023-10-17T10:10:54.033Z,1.55
2023-10-17T10:14:06.954Z,1.50
2023-10-17T10:16:57.770Z,1.73
2023-10-17T10:20:04.018Z,1.60
2023-10-17T10:22:53.273Z,1.65
2023-10-17T10:26:18.686Z,1.75
2023-10-17T10:29:24.539Z,2.00
2023-10-17T10:32:36.675Z,1.45
2023-10-17T10:35:24.666Z,1.35
2023-10-17T10:38:12.238Z,1.48
2023-10-17T10:41:08.395Z,1.75
2023-10-17T10:44:02.321Z,1.60
2023-10-17T10:46:49.999Z,1.70
2023-10-17T10:49:37.258Z,1.25
2023-10-17T10:52:26.153Z,1.20
2023-10-17T10:55:15.607Z,2.08
2023-10-17T10:58:05.061Z,1.15
2023-10-17T11:00:57.223Z,1.00
2023-10-17T11:03:45.773Z,0.80
2023-10-17T11:06:37.195Z,0.90
2023-10-17T11:09:25.453Z,1.02
2023-10-17T11:12:23.240Z,1.10
2023-10-17T11:15:15.742Z,0.80
2023-10-17T11:18:09.099Z,0.80
2023-10-17T11:20:57.309Z,1.23
2023-10-17T11:23:51.506Z,1.30
2023-10-17T11:26:41.324Z,1.02
2023-10-17T11:29:28.920Z,1.20
2023-10-17T11:32:16.147Z,1.00
2023-10-17T11:35:07.572Z,1.10
2023-10-17T11:38:07.597Z,1.00
2023-10-17T11:41:01.710Z,1.33
2023-10-17T11:43:54.605Z,0.90
2023-10-17T11:46:50.262Z,0.98
2023-10-17T11:49:40.527Z,0.90
2023-10-17T11:52:29.533Z,0.77
2023-10-17T11:55:18.836Z,0.77
2023-10-17T11:58:06.522Z,1.00
2023-10-17T12:00:54.197Z,0.98
2023-10-17T12:03:43.114Z,0.80
2023-10-17T12:06:30.805Z,0.80
2023-10-17T12:09:24.058Z,1.10
2023-10-17T12:12:12.767Z,0.93
2023-10-17T12:14:59.927Z,1.00
2023-10-17T12:17:49.262Z,0.80
2023-10-17T12:20:41.930Z,0.80
2023-10-17T12:23:31.124Z,0.70
2023-10-17T12:26:27.904Z,0.73
2023-10-17T12:29:18.348Z,0.95
2023-10-17T12:32:06.246Z,0.90
2023-10-17T12:34:55.754Z,0.90
2023-10-17T12:37:45.463Z,1.00
2023-10-17T12:40:32.820Z,1.00
2023-10-17T12:43:24.385Z,1.00
2023-10-17T12:46:11.814Z,0.80
2023-10-17T12:48:59.845Z,1.00
2023-10-17T12:51:48.501Z,0.90
2023-10-17T12:54:35.865Z,1.00
2023-10-17T12:57:24.179Z,1.13
2023-10-17T13:00:15.985Z,1.15
2023-10-17T13:03:03.802Z,1.20
2023-10-17T13:05:51.321Z,0.90
2023-10-17T13:08:38.819Z,1.17
2023-10-17T13:11:26.256Z,1.02
2023-10-17T13:14:14.003Z,1.65
2023-10-17T13:17:02.880Z,0.90
2023-10-17T13:19:52.582Z,1.00
2023-10-17T13:22:43.435Z,1.13
2023-10-17T13:25:34.372Z,0.88
2023-10-17T13:28:22.099Z,0.93
2023-10-17T13:31:13.215Z,1.00
2023-10-17T13:34:02.081Z,1.35
2023-10-17T13:36:49.420Z,0.70
2023-10-17T13:39:38.420Z,0.90
2023-10-17T13:42:26.545Z,1.08
2023-10-17T13:45:14.925Z,1.05
2023-10-17T13:48:02.390Z,0.90
2023-10-17T13:50:51.144Z,1.25
2023-10-17T13:53:38.792Z,0.93
2023-10-17T13:56:27.034Z,1.08
2023-10-17T13:59:15.778Z,1.00
2023-10-17T14:02:03.047Z,1.02
2023-10-17T14:04:50.651Z,1.20
2023-10-17T14:07:39.985Z,1.00
2023-10-17T14:10:27.460Z,1.00
2023-10-17T14:13:16.244Z,1.00
2023-10-17T14:16:03.593Z,1.00
2023-10-17T14:19:04.132Z,1.10
2023-10-17T14:22:05.573Z,1.15
2023-10-17T14:25:04.239Z,1.17
2023-10-17T14:27:57.047Z,1.05
2023-10-17T14:30:44.740Z,1.13
2023-10-17T14:33:33.433Z,1.10
2023-10-17T14:36:22.402Z,1.08
2023-10-17T14:39:11.496Z,1.20
2023-10-17T14:42:00.184Z,0.90
2023-10-17T14:44:48.020Z,1.00
2023-10-17T14:47:37.022Z,1.27
2023-10-17T14:50:27.766Z,1.05
2023-10-17T14:53:19.413Z,0.90
2023-10-17T14:56:07.004Z,1.00
2023-10-17T14:58:57.871Z,1.10
2023-10-17T15:01:45.473Z,1.00
2023-10-17T15:04:32.957Z,1.10
2023-10-17T15:07:20.896Z,0.90
2023-10-17T15:10:13.602Z,1.17
2023-10-17T15:13:01.225Z,1.00
2023-10-17T15:15:50.141Z,1.30
2023-10-17T15:18:37.321Z,1.42
2023-10-17T15:21:24.930Z,1.60
2023-10-17T15:24:13.945Z,1.70
2023-10-17T15:27:02.775Z,2.00
2023-10-17T15:29:51.300Z,2.60
2023-10-17T15:32:40.317Z,1.60
2023-10-17T15:35:29.345Z,1.37
2023-10-17T15:38:16.943Z,1.63
2023-10-17T15:41:04.176Z,2.17
2023-10-17T15:43:51.743Z,2.08
2023-10-17T15:46:41.158Z,1.90
2023-10-17T15:49:30.130Z,1.73
2023-10-17T15:52:17.574Z,2.03
2023-10-17T15:55:08.253Z,2.10
2023-10-17T15:57:55.722Z,1.93
2023-10-17T16:00:43.732Z,1.70
2023-10-17T16:03:31.423Z,1.90
2023-10-17T16:06:20.430Z,1.85
2023-10-17T16:09:08.415Z,1.90
2023-10-17T16:11:56.613Z,2.03
2023-10-17T16:14:44.430Z,2.00
2023-10-17T16:17:31.980Z,2.00
2023-10-17T16:20:19.685Z,2.00
2023-10-17T16:23:08.336Z,2.07
2023-10-17T16:25:59.567Z,2.00
2023-10-17T16:28:47.316Z,1.97
2023-10-17T16:31:34.973Z,1.90
2023-10-17T16:34:22.463Z,2.00
2023-10-17T16:37:10.058Z,2.00
2023-10-17T16:39:58.998Z,2.00
2023-10-17T16:42:46.767Z,2.27
2023-10-17T16:45:34.026Z,1.73
2023-10-17T16:48:21.855Z,1.87
2023-10-17T16:51:09.393Z,2.17
2023-10-17T16:53:57.353Z,2.03
2023-10-17T16:56:46.207Z,2.17
2023-10-17T16:59:33.888Z,2.50
2023-10-17T17:02:22.836Z,2.53
2023-10-17T17:05:11.565Z,3.40
2023-10-17T17:07:59.082Z,3.80
2023-10-17T17:10:46.233Z,3.97
2023-10-17T17:13:36.239Z,4.37
2023-10-17T17:16:23.797Z,3.90
2023-10-17T17:19:14.016Z,3.60
2023-10-17T17:22:01.666Z,3.77
2023-10-17T17:24:49.327Z,4.00
2023-10-17T17:27:37.379Z,3.93
2023-10-17T17:30:26.521Z,3.90
2023-10-17T17:33:13.993Z,4.20
2023-10-17T17:36:03.369Z,4.20
2023-10-17T17:38:52.918Z,4.10
2023-10-17T17:41:40.335Z,4.47
2023-10-17T17:44:27.982Z,4.73
2023-10-17T17:47:16.624Z,5.13
2023-10-17T17:50:03.794Z,4.97
2023-10-17T17:52:51.352Z,4.87
2023-10-17T17:55:40.438Z,5.10
2023-10-17T17:58:29.781Z,5.03
2023-10-17T18:01:17.572Z,5.37
2023-10-17T18:04:23.419Z,5.67
2023-10-17T18:07:14.325Z,5.30
2023-10-17T18:10:01.996Z,5.33
2023-10-17T18:12:50.280Z,5.33
2023-10-17T18:15:38.097Z,5.23
2023-10-17T18:18:25.814Z,5.63
2023-10-17T18:21:17.186Z,6.40
2023-10-17T18:24:05.090Z,7.70
2023-10-17T18:26:52.444Z,9.67
2023-10-17T18:29:42.007Z,8.87
2023-10-17T18:32:29.491Z,8.90
2023-10-17T18:35:17.506Z,8.47
2023-10-17T18:38:06.557Z,8.77
2023-10-17T18:40:53.997Z,8.57
2023-10-17T18:43:43.624Z,8.43
2023-10-17T18:46:31.070Z,8.03
2023-10-17T18:49:18.878Z,8.13
2023-10-17T18:52:08.757Z,8.10
2023-10-17T18:54:59.426Z,8.17
2023-10-17T18:57:46.896Z,9.47
2023-10-17T19:00:37.077Z,8.07
2023-10-17T19:03:24.543Z,8.87
2023-10-17T19:06:12.708Z,8.80
2023-10-17T19:09:00.319Z,8.20
2023-10-17T19:11:49.158Z,8.37
2023-10-17T19:14:37.580Z,8.13
2023-10-17T19:17:25.201Z,8.67
2023-10-17T19:20:13.741Z,8.43
2023-10-17T19:23:01.311Z,8.97
2023-10-17T19:25:49.885Z,8.07
2023-10-17T19:28:38.709Z,7.80
2023-10-17T19:31:26.287Z,8.13
2023-10-17T19:34:13.855Z,8.03
2023-10-17T19:37:01.238Z,8.00
2023-10-17T19:39:49.892Z,8.20
2023-10-17T19:42:37.341Z,9.20
2023-10-17T19:45:26.391Z,7.77
2023-10-17T19:48:14.127Z,8.77
2023-10-17T19:51:01.803Z,8.80
2023-10-17T19:53:51.275Z,8.40
2023-10-17T19:56:38.665Z,11.90
2023-10-17T19:59:27.369Z,10.40
2023-10-17T20:02:16.728Z,10.73
2023-10-17T20:05:04.784Z,11.47
2023-10-17T20:07:52.298Z,11.13
2023-10-17T20:10:39.803Z,11.33
2023-10-17T20:13:27.097Z,11.00
2023-10-17T20:16:15.416Z,10.13
2023-10-17T20:19:04.160Z,10.37
2023-10-17T20:21:51.489Z,10.97
2023-10-17T20:24:39.168Z,9.97
2023-10-17T20:27:28.992Z,10.47
2023-10-17T20:30:16.985Z,10.37
2023-10-17T20:33:04.753Z,10.27
2023-10-17T20:35:54.131Z,9.80
2023-10-17T20:38:41.634Z,10.07
2023-10-17T20:41:29.252Z,9.57
2023-10-17T20:44:17.011Z,9.17
2023-10-17T20:47:06.595Z,8.17
2023-10-17T20:49:54.052Z,7.60
2023-10-17T20:52:42.975Z,8.40
2023-10-17T20:55:34.691Z,8.00
2023-10-17T20:58:22.126Z,8.20
2023-10-17T21:01:09.839Z,7.47
2023-10-17T21:03:57.402Z,7.77
2023-10-17T21:06:44.900Z,7.17
2023-10-17T21:09:33.897Z,7.00
2023-10-17T21:12:21.579Z,6.13
2023-10-17T21:15:12.282Z,6.70
2023-10-17T21:17:59.769Z,7.23
2023-10-17T21:20:47.298Z,7.00
2023-10-17T21:23:35.104Z,6.73
2023-10-17T21:26:25.029Z,6.80
2023-10-17T21:29:12.240Z,6.30
2023-10-17T21:31:59.803Z,5.87
2023-10-17T21:34:47.148Z,5.60
2023-10-17T21:40:24.976Z,5.80
2023-10-17T21:43:13.742Z,6.00
2023-10-17T21:46:01.997Z,5.90
2023-10-17T21:48:49.627Z,5.43
2023-10-17T21:51:37.313Z,5.67
2023-10-17T21:54:24.652Z,6.63
2023-10-17T21:57:14.306Z,5.43
2023-10-17T22:00:19.428Z,5.57
2023-10-17T22:03:07.696Z,6.13
2023-10-17T22:05:55.246Z,5.57
2023-10-17T22:08:45.392Z,5.30
2023-10-17T22:11:34.615Z,5.43
2023-10-17T22:14:22.332Z,5.53
2023-10-17T22:17:11.421Z,5.67
2023-10-17T22:19:59.526Z,5.90
2023-10-17T22:22:46.790Z,6.13
2023-10-17T22:25:34.878Z,6.10
2023-10-17T22:28:22.445Z,7.27
2023-10-17T22:31:10.904Z,6.00
2023-10-17T22:33:59.991Z,5.13
2023-10-17T22:36:47.115Z,5.60
2023-10-17T22:39:35.997Z,5.90
2023-10-17T22:42:23.237Z,5.67
2023-10-17T22:45:12.843Z,6.23
2023-10-17T22:48:00.189Z,5.93
2023-10-17T22:50:49.486Z,6.40
2023-10-17T22:53:37.706Z,5.67
2023-10-17T22:56:25.027Z,6.90
2023-10-17T22:59:12.368Z,6.13
2023-10-17T23:02:01.045Z,5.70
2023-10-17T23:04:48.614Z,7.10
2023-10-17T23:07:37.628Z,6.33
2023-10-17T23:10:25.266Z,6.70
2023-10-17T23:13:12.770Z,6.33
2023-10-17T23:16:03.429Z,5.97
2023-10-17T23:18:51.091Z,6.17
2023-10-17T23:21:38.466Z,6.50
2023-10-17T23:24:27.377Z,7.83
2023-10-17T23:27:14.828Z,5.97
2023-10-17T23:30:02.222Z,5.97
2023-10-17T23:32:49.713Z,6.73
2023-10-17T23:35:38.301Z,6.27
2023-10-17T23:38:25.711Z,6.10
2023-10-17T23:41:14.537Z,6.27
2023-10-17T23:44:01.762Z,6.70
2023-10-17T23:46:49.731Z,6.47
2023-10-17T23:49:37.286Z,6.67
2023-10-17T23:52:25.644Z,6.63
2023-10-17T23:55:14.441Z,6.77
2023-10-17T23:58:03.614Z,6.50
